createdAt,value
2023-05-21T00:00:39.730Z,15.79
2023-05-21T00:03:09.118Z,15.79
2023-05-21T00:05:36.016Z,15.79
2023-05-21T00:08:02.859Z,15.76
2023-05-21T00:10:29.561Z,15.77
2023-05-21T00:12:56.218Z,15.79
2023-05-21T00:15:22.901Z,15.86
2023-05-21T00:17:49.576Z,15.86
2023-05-21T00:20:16.283Z,15.84
2023-05-21T00:22:43.070Z,15.81
2023-05-21T00:25:10.792Z,15.85
2023-05-21T00:27:37.494Z,15.86
2023-05-21T00:30:04.966Z,15.74
2023-05-21T00:32:31.681Z,15.64
2023-05-21T00:34:58.388Z,15.58
2023-05-21T00:37:25.032Z,15.47
2023-05-21T00:39:55.763Z,15.49
2023-05-21T00:42:27.152Z,15.43
2023-05-21T00:44:53.853Z,15.43
2023-05-21T00:47:21.020Z,15.45
2023-05-21T00:49:48.842Z,15.44
2023-05-21T00:52:15.558Z,15.07
2023-05-21T00:54:42.183Z,14.93
2023-05-21T00:57:09.188Z,14.90
2023-05-21T00:59:35.900Z,14.60
2023-05-21T01:02:03.091Z,14.53
2023-05-21T01:04:30.503Z,14.41
2023-05-21T01:06:57.233Z,14.28
2023-05-21T01:09:25.488Z,14.15
2023-05-21T01:11:52.706Z,14.04
2023-05-21T01:14:20.268Z,13.95
2023-05-21T01:16:48.974Z,13.79
2023-05-21T01:19:21.005Z,14.04
2023-05-21T01:21:53.909Z,14.09
2023-05-21T01:24:20.664Z,13.92
2023-05-21T01:26:47.345Z,13.97
2023-05-21T01:29:14.707Z,14.07
2023-05-21T01:32:26.184Z,14.29
2023-05-21T01:35:11.906Z,14.47
2023-05-21T01:38:36.004Z,14.67
2023-05-21T01:41:04.510Z,14.72
2023-05-21T01:43:36.918Z,14.63
2023-05-21T01:46:05.554Z,14.44
2023-05-21T01:48:32.439Z,14.35
2023-05-21T01:51:02.078Z,14.50
2023-05-21T01:53:28.718Z,14.44
2023-05-21T01:55:55.461Z,14.45
2023-05-21T01:58:22.162Z,14.58
2023-05-21T02:00:49.008Z,14.63
2023-05-21T02:03:15.734Z,14.73
2023-05-21T02:05:42.618Z,14.78
2023-05-21T02:08:10.564Z,14.69
2023-05-21T02:10:37.295Z,14.68
2023-05-21T02:13:04.189Z,14.53
2023-05-21T02:15:30.942Z,14.37
2023-05-21T02:17:57.816Z,14.38
2023-05-21T02:20:24.605Z,14.41
2023-05-21T02:22:51.291Z,14.46
2023-05-21T02:25:18.933Z,14.45
2023-05-21T02:27:45.692Z,14.40
2023-05-21T02:30:14.692Z,14.28
2023-05-21T02:32:43.687Z,14.18
2023-05-21T02:35:11.954Z,14.19
2023-05-21T02:37:39.694Z,13.94
2023-05-21T02:40:07.275Z,14.07
2023-05-21T02:42:34.078Z,14.07
2023-05-21T02:45:00.737Z,13.97
2023-05-21T02:47:27.805Z,13.89
2023-05-21T02:49:54.794Z,13.82
2023-05-21T02:52:21.425Z,13.76
2023-05-21T02:54:48.262Z,13.91
2023-05-21T02:57:15.501Z,13.80
2023-05-21T02:59:42.125Z,13.90
2023-05-21T03:02:08.810Z,14.03
2023-05-21T03:04:35.603Z,14.14
2023-05-21T03:07:02.270Z,14.12
2023-05-21T03:09:29.026Z,14.08
2023-05-21T03:11:55.720Z,14.04
2023-05-21T03:14:22.411Z,14.02
2023-05-21T03:16:49.197Z,13.99
2023-05-21T03:19:16.005Z,13.88
2023-05-21T03:21:42.663Z,13.88
2023-05-21T03:24:09.399Z,13.82
2023-05-21T03:26:36.024Z,13.79
2023-05-21T03:29:02.663Z,13.71
2023-05-21T03:31:29.312Z,13.66
2023-05-21T03:33:56.011Z,13.79
2023-05-21T03:36:22.680Z,13.90
2023-05-21T03:38:49.406Z,13.96
2023-05-21T03:41:16.064Z,13.99
2023-05-21T03:43:42.681Z,14.09
2023-05-21T03:46:09.413Z,14.10
2023-05-21T03:48:36.058Z,14.20
2023-05-21T03:51:02.724Z,14.17
2023-05-21T03:53:29.357Z,14.16
2023-05-21T03:55:55.992Z,14.18
2023-05-21T03:58:22.800Z,14.15
2023-05-21T04:00:49.535Z,14.08
2023-05-21T04:03:16.416Z,13.92
2023-05-21T04:05:43.661Z,13.97
2023-05-21T04:08:10.929Z,13.97
2023-05-21T04:10:37.568Z,13.90
2023-05-21T04:13:04.229Z,13.98
2023-05-21T04:15:31.079Z,13.95
2023-05-21T04:17:57.919Z,13.92
2023-05-21T04:20:24.638Z,14.03
2023-05-21T04:22:51.297Z,14.01
2023-05-21T04:25:17.962Z,14.05
2023-05-21T04:27:44.567Z,14.09
2023-05-21T04:30:11.285Z,14.17
2023-05-21T04:32:37.950Z,14.21
2023-05-21T04:35:04.945Z,14.27
2023-05-21T04:37:31.654Z,14.28
2023-05-21T04:39:58.409Z,14.27
2023-05-21T04:42:25.048Z,14.43
2023-05-21T04:44:51.894Z,14.57
2023-05-21T04:47:18.555Z,14.62
2023-05-21T04:49:45.476Z,14.76
2023-05-21T04:52:12.283Z,14.90
2023-05-21T04:54:39.105Z,15.00
2023-05-21T04:57:06.531Z,15.09
2023-05-21T04:59:33.300Z,15.25
2023-05-21T05:02:00.061Z,15.26
2023-05-21T05:04:26.835Z,15.38
2023-05-21T05:06:53.769Z,15.36
2023-05-21T05:09:20.425Z,15.47
2023-05-21T05:11:47.069Z,15.57
2023-05-21T05:14:13.719Z,15.64
2023-05-21T05:16:40.480Z,15.70
2023-05-21T05:19:07.190Z,15.81
2023-05-21T05:21:33.911Z,15.91
2023-05-21T05:24:00.697Z,15.90
2023-05-21T05:26:27.516Z,15.96
2023-05-21T05:28:54.183Z,16.00
2023-05-21T05:31:20.929Z,16.07
2023-05-21T05:33:48.424Z,16.24
2023-05-21T05:36:15.740Z,16.36
2023-05-21T05:38:44.794Z,16.37
2023-05-21T05:41:11.496Z,16.36
2023-05-21T05:43:38.269Z,16.31
2023-05-21T05:46:05.256Z,16.42
2023-05-21T05:48:31.991Z,16.41
2023-05-21T05:50:58.795Z,16.56
2023-05-21T05:53:25.470Z,16.68
2023-05-21T05:55:53.029Z,16.78
2023-05-21T05:58:19.726Z,16.93
2023-05-21T06:00:46.356Z,17.02
2023-05-21T06:03:13.115Z,17.11
2023-05-21T06:05:40.027Z,17.23
2023-05-21T06:08:07.294Z,17.28
2023-05-21T06:10:33.995Z,17.38
2023-05-21T06:13:00.683Z,17.43
2023-05-21T06:15:27.324Z,17.65
2023-05-21T06:17:54.137Z,17.81
2023-05-21T06:20:20.899Z,17.94
2023-05-21T06:22:47.585Z,18.11
2023-05-21T06:25:19.796Z,18.25
2023-05-21T06:27:46.462Z,18.44
2023-05-21T06:30:13.210Z,18.57
2023-05-21T06:32:39.977Z,18.69
2023-05-21T06:35:06.947Z,18.68
2023-05-21T06:37:33.700Z,18.81
2023-05-21T06:40:00.335Z,18.96
2023-05-21T06:42:29.984Z,19.00
2023-05-21T06:44:56.621Z,19.30
2023-05-21T06:47:23.310Z,19.48
2023-05-21T06:49:49.996Z,19.66
2023-05-21T06:52:16.629Z,19.81
2023-05-21T06:54:43.271Z,20.18
2023-05-21T06:57:09.932Z,20.66
2023-05-21T06:59:36.693Z,20.84
2023-05-21T07:02:04.732Z,21.08
2023-05-21T07:04:31.636Z,21.34
2023-05-21T07:06:58.295Z,21.46
2023-05-21T07:09:24.912Z,21.78
2023-05-21T07:11:51.681Z,22.26
2023-05-21T07:14:18.387Z,22.40
2023-05-21T07:16:45.109Z,22.42
2023-05-21T07:19:11.932Z,22.57
2023-05-21T07:21:38.710Z,22.70
2023-05-21T07:24:05.574Z,22.95
2023-05-21T07:26:32.212Z,22.92
2023-05-21T07:28:58.871Z,22.88
2023-05-21T07:31:25.651Z,22.84
2023-05-21T07:33:52.427Z,22.78
2023-05-21T07:36:19.122Z,22.89
2023-05-21T07:38:45.898Z,22.76
2023-05-21T07:41:12.601Z,23.00
2023-05-21T07:43:39.227Z,23.19
2023-05-21T07:46:06.004Z,23.56
2023-05-21T07:48:34.715Z,23.63
2023-05-21T07:51:02.199Z,23.25
2023-05-21T07:53:28.813Z,23.15
2023-05-21T07:55:55.487Z,23.21
2023-05-21T07:58:22.151Z,23.36
2023-05-21T08:00:48.773Z,23.43
2023-05-21T08:03:16.508Z,23.54
2023-05-21T08:05:47.162Z,23.85
2023-05-21T08:08:17.332Z,24.16
2023-05-21T08:10:44.446Z,24.75
2023-05-21T08:13:14.666Z,24.56
2023-05-21T08:15:41.420Z,24.73
2023-05-21T08:18:08.388Z,24.63
2023-05-21T08:20:35.101Z,24.63
2023-05-21T08:23:02.200Z,24.42
2023-05-21T08:25:28.940Z,24.43
2023-05-21T08:27:55.825Z,24.23
2023-05-21T08:30:22.621Z,24.19
2023-05-21T08:32:49.522Z,24.45
2023-05-21T08:35:19.091Z,24.31
2023-05-21T08:37:45.754Z,24.77
2023-05-21T08:40:12.927Z,25.12
2023-05-21T08:42:43.370Z,25.02
2023-05-21T08:45:12.153Z,25.06
2023-05-21T08:47:41.825Z,24.80
2023-05-21T08:50:10.629Z,24.53
2023-05-21T08:52:37.447Z,24.12
2023-05-21T08:55:07.498Z,23.93
2023-05-21T08:57:35.370Z,23.45
2023-05-21T09:00:03.465Z,23.36
2023-05-21T09:02:35.308Z,23.17
2023-05-21T09:05:02.271Z,23.08
2023-05-21T09:07:30.063Z,23.09
2023-05-21T09:09:58.591Z,23.10
2023-05-21T09:12:25.442Z,23.31
2023-05-21T09:14:52.361Z,23.70
2023-05-21T09:17:19.527Z,24.10
2023-05-21T09:20:14.677Z,24.60
2023-05-21T09:22:44.131Z,24.58
2023-05-21T09:25:12.245Z,24.46
2023-05-21T09:27:39.594Z,24.54
2023-05-21T09:30:10.935Z,24.41
2023-05-21T09:32:38.443Z,24.36
2023-05-21T09:35:10.077Z,24.07
2023-05-21T09:37:44.391Z,23.82
2023-05-21T09:40:18.679Z,23.41
2023-05-21T09:42:52.786Z,23.45
2023-05-21T09:45:23.675Z,23.44
2023-05-21T09:47:53.958Z,23.30
2023-05-21T09:50:28.668Z,23.37
2023-05-21T09:52:56.455Z,23.13
2023-05-21T09:55:24.852Z,22.93
2023-05-21T09:57:52.265Z,23.06
2023-05-21T10:00:20.914Z,22.95
2023-05-21T10:02:54.757Z,22.61
2023-05-21T10:05:25.543Z,22.59
2023-05-21T10:07:53.113Z,22.50
2023-05-21T10:10:20.855Z,22.46
2023-05-21T10:12:50.372Z,22.50
2023-05-21T10:15:20.313Z,22.42
2023-05-21T10:17:49.772Z,22.52
2023-05-21T10:20:16.717Z,22.52
2023-05-21T10:22:44.447Z,22.58
2023-05-21T10:25:13.432Z,22.51
2023-05-21T10:27:40.906Z,22.54
2023-05-21T10:30:08.070Z,22.51
2023-05-21T10:32:34.938Z,22.40
2023-05-21T10:35:04.635Z,22.57
2023-05-21T10:37:31.345Z,22.43
2023-05-21T10:39:58.003Z,22.45
2023-05-21T10:42:43.697Z,22.35
2023-05-21T10:45:20.183Z,22.45
2023-05-21T10:47:59.020Z,22.35
2023-05-21T10:51:01.036Z,22.24
2023-05-21T10:53:39.581Z,22.51
2023-05-21T10:56:22.992Z,22.58
2023-05-21T10:59:01.620Z,22.71
2023-05-21T11:01:29.965Z,22.67
2023-05-21T11:03:57.775Z,22.90
2023-05-21T11:06:27.734Z,23.22
2023-05-21T11:08:55.741Z,23.05
2023-05-21T11:11:58.445Z,22.93
2023-05-21T11:14:41.285Z,23.28
2023-05-21T11:17:39.717Z,23.80
2023-05-21T11:20:13.309Z,23.94
2023-05-21T11:22:39.952Z,23.92
2023-05-21T11:25:06.924Z,23.90
2023-05-21T11:27:34.514Z,23.96
2023-05-21T11:30:04.683Z,24.19
2023-05-21T11:32:31.369Z,24.03
2023-05-21T11:35:00.671Z,23.79
2023-05-21T11:37:28.168Z,24.06
2023-05-21T11:39:55.146Z,24.03
2023-05-21T11:42:31.670Z,23.82
2023-05-21T11:44:58.753Z,23.89
2023-05-21T11:47:25.988Z,24.07
2023-05-21T11:49:52.744Z,24.00
2023-05-21T11:52:19.981Z,23.85
2023-05-21T11:54:48.657Z,24.08
2023-05-21T11:57:18.326Z,24.11
2023-05-21T11:59:45.875Z,24.31
2023-05-21T12:02:17.188Z,24.36
2023-05-21T12:04:45.495Z,24.53
2023-05-21T12:07:14.657Z,24.36
2023-05-21T12:09:42.366Z,24.51
2023-05-21T12:12:09.673Z,24.51
2023-05-21T12:14:36.887Z,24.52
2023-05-21T12:17:04.553Z,24.48
2023-05-21T12:19:34.977Z,24.45
2023-05-21T12:22:05.141Z,24.60
2023-05-21T12:24:32.651Z,24.61
2023-05-21T12:26:59.874Z,24.63
2023-05-21T12:29:27.620Z,24.73
2023-05-21T12:31:54.385Z,24.71
2023-05-21T12:34:43.375Z,24.68
2023-05-21T12:37:16.314Z,24.51
2023-05-21T12:39:44.668Z,24.56
2023-05-21T12:42:11.815Z,24.57
2023-05-21T12:44:39.725Z,24.53
2023-05-21T12:47:06.797Z,24.46
2023-05-21T12:49:46.354Z,24.55
2023-05-21T12:52:13.327Z,24.40
2023-05-21T12:54:41.801Z,24.46
2023-05-21T12:57:17.220Z,24.50
2023-05-21T12:59:54.527Z,24.51
2023-05-21T13:02:29.584Z,24.56
2023-05-21T13:04:56.318Z,24.41
2023-05-21T13:07:23.581Z,24.38
2023-05-21T13:09:51.264Z,24.49
2023-05-21T13:12:20.281Z,24.51
2023-05-21T13:14:46.955Z,24.55
2023-05-21T13:17:13.626Z,24.67
2023-05-21T13:19:40.257Z,24.98
2023-05-21T13:22:06.957Z,25.23
2023-05-21T13:24:34.750Z,25.26
2023-05-21T13:27:01.396Z,25.36
2023-05-21T13:29:28.124Z,25.35
2023-05-21T13:31:54.824Z,25.43
2023-05-21T13:34:23.250Z,25.40
2023-05-21T13:36:49.895Z,25.58
2023-05-21T13:39:16.519Z,25.58
2023-05-21T13:41:43.188Z,25.75
2023-05-21T13:44:09.872Z,25.71
2023-05-21T13:46:36.500Z,25.59
2023-05-21T13:49:03.163Z,25.49
2023-05-21T13:51:38.748Z,25.36
2023-05-21T13:54:06.120Z,25.45
2023-05-21T13:56:32.834Z,25.39
2023-05-21T13:58:59.768Z,25.52
2023-05-21T14:01:26.457Z,25.83
2023-05-21T14:03:53.138Z,25.99
2023-05-21T14:06:19.864Z,26.04
2023-05-21T14:08:46.520Z,26.13
2023-05-21T14:11:13.173Z,26.10
2023-05-21T14:13:39.837Z,25.93
2023-05-21T14:16:07.160Z,25.93
2023-05-21T14:18:34.045Z,25.83
2023-05-21T14:21:00.753Z,25.98
2023-05-21T14:23:27.692Z,25.93
2023-05-21T14:25:54.830Z,25.99
2023-05-21T14:28:21.570Z,25.98
2023-05-21T14:30:48.800Z,25.79
2023-05-21T14:33:16.044Z,25.73
2023-05-21T14:35:45.367Z,25.54
2023-05-21T14:38:12.120Z,25.48
2023-05-21T14:40:39.140Z,25.60
2023-05-21T14:43:08.173Z,25.72
2023-05-21T14:45:35.283Z,25.68
2023-05-21T14:48:02.685Z,25.64
2023-05-21T14:50:29.393Z,25.46
2023-05-21T14:52:56.000Z,25.60
2023-05-21T14:55:24.246Z,25.57
2023-05-21T14:57:54.043Z,25.63
2023-05-21T15:00:20.771Z,25.53
2023-05-21T15:02:48.281Z,25.49
2023-05-21T15:05:16.270Z,25.46
2023-05-21T15:07:42.920Z,25.39
2023-05-21T15:10:10.076Z,25.35
2023-05-21T15:12:37.725Z,25.34
2023-05-21T15:15:05.213Z,25.34
2023-05-21T15:17:32.008Z,25.49
2023-05-21T15:19:59.521Z,25.59
2023-05-21T15:22:26.330Z,25.52
2023-05-21T15:24:53.224Z,25.59
2023-05-21T15:27:19.913Z,25.48
2023-05-21T15:29:46.550Z,25.58
2023-05-21T15:32:14.259Z,25.52
2023-05-21T15:34:41.025Z,25.52
2023-05-21T15:37:07.922Z,25.48
2023-05-21T15:39:34.721Z,25.32
2023-05-21T15:42:01.792Z,25.34
2023-05-21T15:44:28.525Z,25.26
2023-05-21T15:46:55.209Z,25.17
2023-05-21T15:49:22.021Z,25.16
2023-05-21T15:51:49.096Z,24.97
2023-05-21T15:54:15.810Z,24.91
2023-05-21T15:56:43.997Z,24.68
2023-05-21T15:59:10.680Z,24.31
2023-05-21T16:01:37.373Z,24.48
2023-05-21T16:04:05.082Z,24.35
2023-05-21T16:06:32.135Z,24.36
2023-05-21T16:08:59.384Z,24.26
2023-05-21T16:11:26.647Z,24.28
2023-05-21T16:14:03.085Z,24.08
2023-05-21T16:16:33.025Z,23.92
2023-05-21T16:19:02.874Z,23.98
2023-05-21T16:21:31.999Z,23.94
2023-05-21T16:23:58.637Z,23.87
2023-05-21T16:26:25.780Z,23.61
2023-05-21T16:28:53.770Z,23.69
2023-05-21T16:31:20.497Z,23.88
2023-05-21T16:33:47.221Z,23.82
2023-05-21T16:36:15.054Z,23.57
2023-05-21T16:38:42.471Z,23.52
2023-05-21T16:41:09.102Z,23.69
2023-05-21T16:43:35.776Z,23.85
2023-05-21T16:46:02.624Z,23.92
2023-05-21T16:48:30.474Z,23.85
2023-05-21T16:50:57.880Z,23.66
2023-05-21T16:53:24.572Z,23.55
2023-05-21T16:55:51.243Z,23.90
2023-05-21T16:58:17.944Z,23.88
2023-05-21T17:00:49.028Z,23.96
2023-05-21T17:03:15.800Z,24.16
2023-05-21T17:05:43.166Z,24.02
2023-05-21T17:08:16.970Z,24.29
2023-05-21T17:10:43.765Z,24.41
2023-05-21T17:13:21.638Z,24.57
2023-05-21T17:15:51.920Z,24.42
2023-05-21T17:18:18.696Z,24.50
2023-05-21T17:20:45.873Z,24.81
2023-05-21T17:23:12.819Z,24.94
2023-05-21T17:25:40.046Z,25.17
2023-05-21T17:28:07.182Z,25.25
2023-05-21T17:30:33.909Z,25.34
2023-05-21T17:33:01.345Z,25.36
2023-05-21T17:35:28.230Z,25.34
2023-05-21T17:37:57.223Z,25.38
2023-05-21T17:40:24.646Z,25.22
2023-05-21T17:42:52.626Z,25.23
2023-05-21T17:45:19.658Z,24.87
2023-05-21T17:47:47.735Z,24.92
2023-05-21T17:50:16.632Z,24.87
2023-05-21T17:52:43.480Z,24.61
2023-05-21T17:55:10.747Z,24.32
2023-05-21T17:57:37.565Z,24.46
2023-05-21T18:00:05.976Z,24.38
2023-05-21T18:02:33.034Z,24.34
2023-05-21T18:04:59.727Z,24.31
2023-05-21T18:07:26.378Z,24.21
2023-05-21T18:09:55.865Z,24.19
2023-05-21T18:12:22.389Z,24.05
2023-05-21T18:14:49.058Z,23.80
2023-05-21T18:17:15.748Z,23.74
2023-05-21T18:19:42.453Z,23.77
2023-05-21T18:22:09.129Z,23.66
2023-05-21T18:24:35.783Z,23.63
2023-05-21T18:27:02.727Z,23.57
2023-05-21T18:29:29.415Z,23.41
2023-05-21T18:31:56.129Z,23.27
2023-05-21T18:34:22.843Z,23.18
2023-05-21T18:36:49.490Z,23.15
2023-05-21T18:39:18.959Z,23.10
2023-05-21T18:42:01.573Z,23.03
2023-05-21T18:44:38.670Z,22.89
2023-05-21T18:47:05.715Z,22.84
2023-05-21T18:49:32.453Z,22.77
2023-05-21T18:52:00.702Z,22.65
2023-05-21T18:54:27.409Z,22.34
2023-05-21T18:56:54.123Z,22.47
2023-05-21T18:59:20.910Z,22.40
2023-05-21T19:01:47.663Z,22.32
2023-05-21T19:04:14.363Z,22.16
2023-05-21T19:06:41.238Z,22.13
2023-05-21T19:09:08.082Z,22.10
2023-05-21T19:11:34.759Z,21.80
2023-05-21T19:14:01.517Z,21.69
2023-05-21T19:16:28.318Z,21.69
2023-05-21T19:18:55.067Z,21.60
2023-05-21T19:21:22.982Z,21.41
2023-05-21T19:23:53.193Z,21.59
2023-05-21T19:26:21.524Z,21.55
2023-05-21T19:28:48.170Z,21.40
2023-05-21T19:31:15.141Z,21.37
2023-05-21T19:33:41.921Z,21.41
2023-05-21T19:36:08.660Z,21.28
2023-05-21T19:38:35.495Z,21.10
2023-05-21T19:41:02.252Z,20.59
2023-05-21T19:43:28.976Z,20.01
2023-05-21T19:45:55.631Z,19.87
2023-05-21T19:48:22.597Z,19.59
2023-05-21T19:50:49.288Z,19.56
2023-05-21T19:53:15.972Z,19.52
2023-05-21T19:55:42.629Z,19.49
2023-05-21T19:58:09.364Z,19.42
2023-05-21T20:00:36.031Z,19.24
2023-05-21T20:03:05.586Z,19.15
2023-05-21T20:05:32.345Z,19.27
2023-05-21T20:07:59.051Z,19.42
2023-05-21T20:10:26.392Z,19.46
2023-05-21T20:12:55.810Z,19.54
2023-05-21T20:15:22.560Z,19.67
2023-05-21T20:17:49.356Z,19.72
2023-05-21T20:20:16.296Z,19.80
2023-05-21T20:22:43.080Z,19.84
2023-05-21T20:25:09.936Z,19.69
2023-05-21T20:27:36.571Z,19.45
2023-05-21T20:30:03.552Z,19.33
2023-05-21T20:32:30.206Z,19.21
2023-05-21T20:35:03.452Z,19.21
2023-05-21T20:37:30.827Z,19.27
2023-05-21T20:39:57.516Z,19.39
2023-05-21T20:42:24.984Z,19.63
2023-05-21T20:44:52.087Z,19.75
2023-05-21T20:47:18.914Z,19.85
2023-05-21T20:49:46.134Z,19.70
2023-05-21T20:52:12.764Z,19.23
2023-05-21T20:54:39.428Z,19.07
2023-05-21T20:57:06.222Z,18.96
2023-05-21T20:59:32.871Z,18.90
2023-05-21T21:01:59.792Z,19.06
2023-05-21T21:04:27.977Z,19.07
2023-05-21T21:06:54.607Z,19.06
2023-05-21T21:09:21.273Z,19.01
2023-05-21T21:11:48.216Z,19.10
2023-05-21T21:14:14.840Z,19.23
2023-05-21T21:16:41.638Z,19.11
2023-05-21T21:19:08.680Z,18.99
2023-05-21T21:21:35.556Z,18.80
2023-05-21T21:24:05.129Z,18.85
2023-05-21T21:26:32.253Z,18.88
2023-05-21T21:28:59.021Z,18.72
2023-05-21T21:31:25.970Z,18.36
2023-05-21T21:33:52.815Z,18.12
2023-05-21T21:36:19.672Z,17.86
2023-05-21T21:38:46.563Z,17.70
2023-05-21T21:41:13.712Z,17.74
2023-05-21T21:43:40.480Z,17.68
2023-05-21T21:46:07.184Z,17.68
2023-05-21T21:48:34.624Z,17.57
2023-05-21T21:51:01.974Z,17.57
2023-05-21T21:53:28.586Z,17.64
2023-05-21T21:55:55.512Z,17.59
2023-05-21T21:58:22.336Z,17.67
2023-05-21T22:00:49.018Z,17.88
2023-05-21T22:03:15.720Z,17.96
2023-05-21T22:05:42.378Z,18.25
2023-05-21T22:08:09.055Z,18.23
2023-05-21T22:10:35.945Z,18.13
2023-05-21T22:13:02.735Z,18.18
2023-05-21T22:15:29.438Z,18.13
2023-05-21T22:17:56.236Z,18.24
2023-05-21T22:20:22.914Z,18.16
2023-05-21T22:22:49.703Z,18.14
2023-05-21T22:25:16.362Z,18.10
2023-05-21T22:27:46.148Z,18.21
2023-05-21T22:30:12.940Z,18.54
2023-05-21T22:32:39.604Z,18.76
2023-05-21T22:35:07.019Z,18.88
2023-05-21T22:37:33.729Z,19.00
2023-05-21T22:40:00.528Z,19.06
2023-05-21T22:42:27.206Z,19.23
2023-05-21T22:44:56.220Z,19.23
2023-05-21T22:47:22.884Z,19.40
2023-05-21T22:49:49.954Z,19.57
2023-05-21T22:52:16.641Z,19.63
2023-05-21T22:54:44.464Z,19.61
2023-05-21T22:57:11.181Z,19.72
2023-05-21T22:59:37.819Z,19.69
2023-05-21T23:02:04.841Z,19.72
2023-05-21T23:04:43.416Z,19.70
2023-05-21T23:07:14.618Z,19.62
2023-05-21T23:09:41.307Z,19.49
2023-05-21T23:12:09.609Z,19.39
2023-05-21T23:14:38.563Z,18.99
2023-05-21T23:17:05.272Z,18.83
2023-05-21T23:19:32.032Z,18.87
2023-05-21T23:21:58.894Z,18.80
2023-05-21T23:24:25.697Z,18.76
2023-05-21T23:26:52.506Z,18.41
2023-05-21T23:29:22.391Z,18.35
2023-05-21T23:31:49.479Z,18.35
2023-05-21T23:34:16.134Z,18.14
2023-05-21T23:36:42.840Z,18.02
2023-05-21T23:39:09.584Z,17.92
2023-05-21T23:41:36.400Z,17.70
2023-05-21T23:44:03.334Z,17.67
2023-05-21T23:46:29.985Z,17.72
2023-05-21T23:48:56.636Z,17.67
2023-05-21T23:51:23.330Z,17.70
2023-05-21T23:53:50.024Z,17.78
2023-05-21T23:56:16.655Z,17.87
2023-05-21T23:58:43.281Z,17.97
